Terminal Aerodrome Forecast
Issued by NWS Quad Cities IA IL

Home | Current Version | Previous Version | Text Only | Print | Product List | Glossary On
Versions: 1 2 3 4 5 6 7 8 9 10 11 12 13 14 15 16 17 18 19 20 21 22 23 24
000
FTUS43 KDVN 291100 AAA
TAFMLI
TAF AMD
KMLI 291159Z 2912/3012 04004KT P6SM OVC070
     FM291600 02007KT P6SM VCSH BKN040
     FM300000 35012KT P6SM BKN080=

USA.gov is the U.S. government's official web portal to all federal, state and local government web resources and services.